sensor_id;sensor_type;location;lat;lon;timestamp;P1;P2;P0
58740;PMS7003;44512;53.046;18.604;2023-05-27T00:05:07;6;3;3
58740;PMS7003;44512;53.046;18.604;2023-05-27T00:15:37;6;5;3
58740;PMS7003;44512;53.046;18.604;2023-05-27T00:26:04;5;5;3
58740;PMS7003;44512;53.046;18.604;2023-05-27T00:36:32;6;5;3
58740;PMS7003;44512;53.046;18.604;2023-05-27T00:47:01;5;4;4
58740;PMS7003;44512;53.046;18.604;2023-05-27T00:57:29;8;7;4
58740;PMS7003;44512;53.046;18.604;2023-05-27T01:18:26;8;5;3
58740;PMS7003;44512;53.046;18.604;2023-05-27T01:28:54;6;5;3
58740;PMS7003;44512;53.046;18.604;2023-05-27T01:39:23;8;5;4
58740;PMS7003;44512;53.046;18.604;2023-05-27T01:49:51;7;6;4
58740;PMS7003;44512;53.046;18.604;2023-05-27T02:00:19;6;5;3
58740;PMS7003;44512;53.046;18.604;2023-05-27T02:10:48;8;6;4
58740;PMS7003;44512;53.046;18.604;2023-05-27T02:21:16;6;6;5
58740;PMS7003;44512;53.046;18.604;2023-05-27T02:31:45;10;6;5
58740;PMS7003;44512;53.046;18.604;2023-05-27T02:42:13;6;5;3
58740;PMS7003;44512;53.046;18.604;2023-05-27T02:52:41;8;6;5
58740;PMS7003;44512;53.046;18.604;2023-05-27T03:03:10;7;6;3
58740;PMS7003;44512;53.046;18.604;2023-05-27T03:13:38;7;4;3
58740;PMS7003;44512;53.046;18.604;2023-05-27T03:24:07;7;7;5
58740;PMS7003;44512;53.046;18.604;2023-05-27T03:34:35;8;6;5
58740;PMS7003;44512;53.046;18.604;2023-05-27T03:45:04;8;6;5
58740;PMS7003;44512;53.046;18.604;2023-05-27T03:55:32;10;8;6
58740;PMS7003;44512;53.046;18.604;2023-05-27T04:06:00;8;7;5
58740;PMS7003;44512;53.046;18.604;2023-05-27T04:16:29;12;7;6
58740;PMS7003;44512;53.046;18.604;2023-05-27T04:26:57;8;6;4
58740;PMS7003;44512;53.046;18.604;2023-05-27T04:37:25;7;6;5
58740;PMS7003;44512;53.046;18.604;2023-05-27T04:47:54;8;6;6
58740;PMS7003;44512;53.046;18.604;2023-05-27T04:58:22;8;5;4
58740;PMS7003;44512;53.046;18.604;2023-05-27T05:08:50;10;6;4
58740;PMS7003;44512;53.046;18.604;2023-05-27T05:19:19;6;5;3
58740;PMS7003;44512;53.046;18.604;2023-05-27T05:29:47;4;4;3
58740;PMS7003;44512;53.046;18.604;2023-05-27T05:40:16;4;3;2
58740;PMS7003;44512;53.046;18.604;2023-05-27T05:50:45;2;2;2
58740;PMS7003;44512;53.046;18.604;2023-05-27T06:01:12;4;2;2
58740;PMS7003;44512;53.046;18.604;2023-05-27T06:11:41;1;1;1
58740;PMS7003;44512;53.046;18.604;2023-05-27T06:22:09;2;1;1
58740;PMS7003;44512;53.046;18.604;2023-05-27T06:32:37;2;0;0
58740;PMS7003;44512;53.046;18.604;2023-05-27T06:43:07;0;0;0
58740;PMS7003;44512;53.046;18.604;2023-05-27T06:53:34;1;1;0
58740;PMS7003;44512;53.046;18.604;2023-05-27T07:04:03;1;0;0
58740;PMS7003;44512;53.046;18.604;2023-05-27T07:14:31;1;0;0
58740;PMS7003;44512;53.046;18.604;2023-05-27T07:24:59;0;0;0
58740;PMS7003;44512;53.046;18.604;2023-05-27T07:35:28;0;0;0
58740;PMS7003;44512;53.046;18.604;2023-05-27T07:45:56;0;0;0
58740;PMS7003;44512;53.046;18.604;2023-05-27T07:56:24;0;0;0
58740;PMS7003;44512;53.046;18.604;2023-05-27T08:06:53;1;0;0
58740;PMS7003;44512;53.046;18.604;2023-05-27T08:17:21;0;0;0
58740;PMS7003;44512;53.046;18.604;2023-05-27T08:27:50;0;0;0
58740;PMS7003;44512;53.046;18.604;2023-05-27T08:38:18;0;0;0
58740;PMS7003;44512;53.046;18.604;2023-05-27T08:48:46;0;0;0
58740;PMS7003;44512;53.046;18.604;2023-05-27T08:59:14;1;0;0
58740;PMS7003;44512;53.046;18.604;2023-05-27T09:09:43;1;0;0
58740;PMS7003;44512;53.046;18.604;2023-05-27T09:20:11;0;0;0
58740;PMS7003;44512;53.046;18.604;2023-05-27T09:30:39;1;0;0
58740;PMS7003;44512;53.046;18.604;2023-05-27T09:41:07;0;0;0
58740;PMS7003;44512;53.046;18.604;2023-05-27T09:51:36;0;0;0
58740;PMS7003;44512;53.046;18.604;2023-05-27T10:02:04;0;0;0
58740;PMS7003;44512;53.046;18.604;2023-05-27T10:12:33;0;0;0
58740;PMS7003;44512;53.046;18.604;2023-05-27T10:33:29;0;0;0
58740;PMS7003;44512;53.046;18.604;2023-05-27T10:43:58;0;0;0
58740;PMS7003;44512;53.046;18.604;2023-05-27T10:54:25;0;0;0
58740;PMS7003;44512;53.046;18.604;2023-05-27T11:04:53;0;0;0
58740;PMS7003;44512;53.046;18.604;2023-05-27T11:15:22;0;0;0
58740;PMS7003;44512;53.046;18.604;2023-05-27T11:25:50;0;0;0
58740;PMS7003;44512;53.046;18.604;2023-05-27T11:36:19;0;0;0
58740;PMS7003;44512;53.046;18.604;2023-05-27T11:46:47;0;0;0
58740;PMS7003;44512;53.046;18.604;2023-05-27T11:57:15;0;0;0
58740;PMS7003;44512;53.046;18.604;2023-05-27T12:07:44;1;0;0
58740;PMS7003;44512;53.046;18.604;2023-05-27T12:18:12;0;0;0
58740;PMS7003;44512;53.046;18.604;2023-05-27T12:28:41;0;0;0
58740;PMS7003;44512;53.046;18.604;2023-05-27T12:39:08;0;0;0
58740;PMS7003;44512;53.046;18.604;2023-05-27T12:49:37;0;0;0
58740;PMS7003;44512;53.046;18.604;2023-05-27T13:00:05;0;0;0
58740;PMS7003;44512;53.046;18.604;2023-05-27T13:10:33;0;0;0
58740;PMS7003;44512;53.046;18.604;2023-05-27T13:21:02;0;0;0
58740;PMS7003;44512;53.046;18.604;2023-05-27T13:31:30;0;0;0
58740;PMS7003;44512;53.046;18.604;2023-05-27T13:41:59;0;0;0
58740;PMS7003;44512;53.046;18.604;2023-05-27T13:52:27;0;0;0
58740;PMS7003;44512;53.046;18.604;2023-05-27T14:02:55;0;0;0
58740;PMS7003;44512;53.046;18.604;2023-05-27T14:13:23;0;0;0
58740;PMS7003;44512;53.046;18.604;2023-05-27T14:23:51;0;0;0
58740;PMS7003;44512;53.046;18.604;2023-05-27T14:34:20;0;0;0
58740;PMS7003;44512;53.046;18.604;2023-05-27T14:50:06;0;0;0
58740;PMS7003;44512;53.046;18.604;2023-05-27T15:00:34;0;0;0
58740;PMS7003;44512;53.046;18.604;2023-05-27T15:11:03;0;0;0
58740;PMS7003;44512;53.046;18.604;2023-05-27T15:21:31;0;0;0
58740;PMS7003;44512;53.046;18.604;2023-05-27T15:31:59;0;0;0
58740;PMS7003;44512;53.046;18.604;2023-05-27T15:42:28;0;0;0
58740;PMS7003;44512;53.046;18.604;2023-05-27T15:52:56;0;0;0
58740;PMS7003;44512;53.046;18.604;2023-05-27T16:03:24;0;0;0
58740;PMS7003;44512;53.046;18.604;2023-05-27T16:13:53;0;0;0
58740;PMS7003;44512;53.046;18.604;2023-05-27T16:24:21;0;0;0
58740;PMS7003;44512;53.046;18.604;2023-05-27T16:34:49;0;0;0
58740;PMS7003;44512;53.046;18.604;2023-05-27T16:45:18;1;0;0
58740;PMS7003;44512;53.046;18.604;2023-05-27T16:55:46;2;0;0
58740;PMS7003;44512;53.046;18.604;2023-05-27T17:06:14;0;0;0
58740;PMS7003;44512;53.046;18.604;2023-05-27T17:16:43;0;0;0
58740;PMS7003;44512;53.046;18.604;2023-05-27T17:27:11;0;0;0
58740;PMS7003;44512;53.046;18.604;2023-05-27T17:37:39;0;0;0
58740;PMS7003;44512;53.046;18.604;2023-05-27T17:48:07;1;0;0
58740;PMS7003;44512;53.046;18.604;2023-05-27T17:58:36;3;0;0
58740;PMS7003;44512;53.046;18.604;2023-05-27T18:09:04;0;0;0
58740;PMS7003;44512;53.046;18.604;2023-05-27T18:19:32;0;0;0
58740;PMS7003;44512;53.046;18.604;2023-05-27T18:30:01;0;0;0
58740;PMS7003;44512;53.046;18.604;2023-05-27T18:40:29;0;0;0
58740;PMS7003;44512;53.046;18.604;2023-05-27T18:50:58;2;1;1
58740;PMS7003;44512;53.046;18.604;2023-05-27T19:01:26;3;1;0
58740;PMS7003;44512;53.046;18.604;2023-05-27T19:11:54;2;2;1
58740;PMS7003;44512;53.046;18.604;2023-05-27T19:22:22;2;2;2
58740;PMS7003;44512;53.046;18.604;2023-05-27T19:32:51;2;2;2
58740;PMS7003;44512;53.046;18.604;2023-05-27T19:43:19;2;2;2
58740;PMS7003;44512;53.046;18.604;2023-05-27T19:53:54;3;3;3
58740;PMS7003;44512;53.046;18.604;2023-05-27T20:04:16;6;6;4
58740;PMS7003;44512;53.046;18.604;2023-05-27T20:14:44;10;6;4
58740;PMS7003;44512;53.046;18.604;2023-05-27T20:25:12;7;6;5
58740;PMS7003;44512;53.046;18.604;2023-05-27T20:35:41;8;7;6
58740;PMS7003;44512;53.046;18.604;2023-05-27T20:46:09;6;5;4
58740;PMS7003;44512;53.046;18.604;2023-05-27T20:56:37;4;4;3
58740;PMS7003;44512;53.046;18.604;2023-05-27T21:07:06;3;3;2
58740;PMS7003;44512;53.046;18.604;2023-05-27T21:17:34;3;3;3
58740;PMS7003;44512;53.046;18.604;2023-05-27T21:28:03;3;3;3
58740;PMS7003;44512;53.046;18.604;2023-05-27T21:38:31;4;4;3
58740;PMS7003;44512;53.046;18.604;2023-05-27T21:48:59;3;3;3
58740;PMS7003;44512;53.046;18.604;2023-05-27T21:59:28;3;3;2
58740;PMS7003;44512;53.046;18.604;2023-05-27T22:09:56;4;3;3
58740;PMS7003;44512;53.046;18.604;2023-05-27T22:20:24;4;4;3
58740;PMS7003;44512;53.046;18.604;2023-05-27T22:30:53;7;4;3
58740;PMS7003;44512;53.046;18.604;2023-05-27T22:41:21;6;4;3
58740;PMS7003;44512;53.046;18.604;2023-05-27T22:51:49;4;3;2
58740;PMS7003;44512;53.046;18.604;2023-05-27T23:02:18;5;5;4
58740;PMS7003;44512;53.046;18.604;2023-05-27T23:12:46;4;4;2
58740;PMS7003;44512;53.046;18.604;2023-05-27T23:23:15;7;5;4
58740;PMS7003;44512;53.046;18.604;2023-05-27T23:33:43;4;4;3
58740;PMS7003;44512;53.046;18.604;2023-05-27T23:44:11;9;8;4
58740;PMS7003;44512;53.046;18.604;2023-05-27T23:54:40;11;8;7
